sensor_id;sensor_type;location;lat;lon;timestamp;temperature;humidity
54192;DHT22;40101;53.002;6.488;2022-07-24T00:02:09;16.40;99.90
54192;DHT22;40101;53.002;6.488;2022-07-24T00:04:35;16.20;99.90
54192;DHT22;40101;53.002;6.488;2022-07-24T00:07:01;16.30;99.90
54192;DHT22;40101;53.002;6.488;2022-07-24T00:09:27;16.20;99.90
54192;DHT22;40101;53.002;6.488;2022-07-24T00:11:53;16.20;99.90
54192;DHT22;40101;53.002;6.488;2022-07-24T00:14:19;16.20;99.90
54192;DHT22;40101;53.002;6.488;2022-07-24T00:16:44;16.10;99.90
54192;DHT22;40101;53.002;6.488;2022-07-24T00:19:10;16.10;99.90
54192;DHT22;40101;53.002;6.488;2022-07-24T00:21:36;16.20;99.90
54192;DHT22;40101;53.002;6.488;2022-07-24T00:24:01;16.10;99.90
54192;DHT22;40101;53.002;6.488;2022-07-24T00:26:28;16.10;99.90
54192;DHT22;40101;53.002;6.488;2022-07-24T00:28:53;16.00;99.90
54192;DHT22;40101;53.002;6.488;2022-07-24T00:31:19;16.00;99.90
54192;DHT22;40101;53.002;6.488;2022-07-24T00:33:45;16.00;99.90
54192;DHT22;40101;53.002;6.488;2022-07-24T00:36:11;15.90;99.90
54192;DHT22;40101;53.002;6.488;2022-07-24T00:38:37;16.10;99.90
54192;DHT22;40101;53.002;6.488;2022-07-24T00:41:03;16.00;99.90
54192;DHT22;40101;53.002;6.488;2022-07-24T00:43:28;16.00;99.90
54192;DHT22;40101;53.002;6.488;2022-07-24T00:45:54;15.90;99.90
54192;DHT22;40101;53.002;6.488;2022-07-24T00:48:20;16.00;99.90
54192;DHT22;40101;53.002;6.488;2022-07-24T00:50:46;16.00;99.90
54192;DHT22;40101;53.002;6.488;2022-07-24T00:53:14;16.00;99.90
54192;DHT22;40101;53.002;6.488;2022-07-24T00:55:40;15.90;99.90
54192;DHT22;40101;53.002;6.488;2022-07-24T00:58:07;16.00;99.90
54192;DHT22;40101;53.002;6.488;2022-07-24T01:00:33;15.90;99.90
54192;DHT22;40101;53.002;6.488;2022-07-24T01:02:59;15.90;99.90
54192;DHT22;40101;53.002;6.488;2022-07-24T01:05:25;16.00;99.90
54192;DHT22;40101;53.002;6.488;2022-07-24T01:07:51;15.90;99.90
54192;DHT22;40101;53.002;6.488;2022-07-24T01:10:17;16.00;99.90
54192;DHT22;40101;53.002;6.488;2022-07-24T01:12:43;16.00;99.90
54192;DHT22;40101;53.002;6.488;2022-07-24T01:15:10;16.00;99.90
54192;DHT22;40101;53.002;6.488;2022-07-24T01:17:39;16.00;99.90
54192;DHT22;40101;53.002;6.488;2022-07-24T01:20:06;16.00;99.90
54192;DHT22;40101;53.002;6.488;2022-07-24T01:22:32;16.00;99.90
54192;DHT22;40101;53.002;6.488;2022-07-24T01:24:58;16.10;99.90
54192;DHT22;40101;53.002;6.488;2022-07-24T01:27:24;16.00;99.90
54192;DHT22;40101;53.002;6.488;2022-07-24T01:29:51;16.00;99.90
54192;DHT22;40101;53.002;6.488;2022-07-24T01:32:17;16.00;99.90
54192;DHT22;40101;53.002;6.488;2022-07-24T01:34:43;16.10;99.90
54192;DHT22;40101;53.002;6.488;2022-07-24T01:37:10;16.00;99.90
54192;DHT22;40101;53.002;6.488;2022-07-24T01:39:36;16.00;99.90
54192;DHT22;40101;53.002;6.488;2022-07-24T01:42:03;16.00;99.90
54192;DHT22;40101;53.002;6.488;2022-07-24T01:44:28;15.90;99.90
54192;DHT22;40101;53.002;6.488;2022-07-24T01:46:54;15.90;99.90
54192;DHT22;40101;53.002;6.488;2022-07-24T01:49:20;15.90;99.90
54192;DHT22;40101;53.002;6.488;2022-07-24T01:51:46;15.70;99.90
54192;DHT22;40101;53.002;6.488;2022-07-24T01:54:11;15.90;99.90
54192;DHT22;40101;53.002;6.488;2022-07-24T01:56:38;16.00;99.90
54192;DHT22;40101;53.002;6.488;2022-07-24T01:59:03;15.80;99.90
54192;DHT22;40101;53.002;6.488;2022-07-24T02:01:29;15.80;99.90
54192;DHT22;40101;53.002;6.488;2022-07-24T02:03:55;15.90;99.90
54192;DHT22;40101;53.002;6.488;2022-07-24T02:06:22;15.80;99.90
54192;DHT22;40101;53.002;6.488;2022-07-24T02:08:48;15.80;99.90
54192;DHT22;40101;53.002;6.488;2022-07-24T02:11:13;15.80;99.90
54192;DHT22;40101;53.002;6.488;2022-07-24T02:13:39;15.90;99.90
54192;DHT22;40101;53.002;6.488;2022-07-24T02:16:05;15.80;99.90
54192;DHT22;40101;53.002;6.488;2022-07-24T02:18:32;15.80;99.90
54192;DHT22;40101;53.002;6.488;2022-07-24T02:20:58;15.70;99.90
54192;DHT22;40101;53.002;6.488;2022-07-24T02:23:24;15.80;99.90
54192;DHT22;40101;53.002;6.488;2022-07-24T02:25:50;15.70;99.90
54192;DHT22;40101;53.002;6.488;2022-07-24T02:28:16;15.70;99.90
54192;DHT22;40101;53.002;6.488;2022-07-24T02:30:42;15.70;99.90
54192;DHT22;40101;53.002;6.488;2022-07-24T02:33:08;15.80;99.90
54192;DHT22;40101;53.002;6.488;2022-07-24T02:35:35;15.70;99.90
54192;DHT22;40101;53.002;6.488;2022-07-24T02:38:01;15.70;99.90
54192;DHT22;40101;53.002;6.488;2022-07-24T02:40:27;15.60;99.90
54192;DHT22;40101;53.002;6.488;2022-07-24T02:42:53;15.70;99.90
54192;DHT22;40101;53.002;6.488;2022-07-24T02:45:18;15.70;99.90
54192;DHT22;40101;53.002;6.488;2022-07-24T02:47:53;15.70;99.90
54192;DHT22;40101;53.002;6.488;2022-07-24T02:50:21;15.70;99.90
54192;DHT22;40101;53.002;6.488;2022-07-24T02:52:48;15.60;99.90
54192;DHT22;40101;53.002;6.488;2022-07-24T02:55:13;15.70;99.90
54192;DHT22;40101;53.002;6.488;2022-07-24T02:57:39;15.60;99.90
54192;DHT22;40101;53.002;6.488;2022-07-24T03:00:08;15.60;99.90
54192;DHT22;40101;53.002;6.488;2022-07-24T03:02:34;15.60;99.90
54192;DHT22;40101;53.002;6.488;2022-07-24T03:05:01;15.60;99.90
54192;DHT22;40101;53.002;6.488;2022-07-24T03:07:28;15.60;99.90
54192;DHT22;40101;53.002;6.488;2022-07-24T03:09:53;15.50;99.90
54192;DHT22;40101;53.002;6.488;2022-07-24T03:12:19;15.50;99.90
54192;DHT22;40101;53.002;6.488;2022-07-24T03:14:45;15.50;99.90
54192;DHT22;40101;53.002;6.488;2022-07-24T03:17:10;15.50;99.90
54192;DHT22;40101;53.002;6.488;2022-07-24T03:19:36;15.50;99.90
54192;DHT22;40101;53.002;6.488;2022-07-24T03:22:02;15.50;99.90
54192;DHT22;40101;53.002;6.488;2022-07-24T03:24:28;15.50;99.90
54192;DHT22;40101;53.002;6.488;2022-07-24T03:26:53;15.50;99.90
54192;DHT22;40101;53.002;6.488;2022-07-24T03:29:19;15.60;99.90
54192;DHT22;40101;53.002;6.488;2022-07-24T03:31:45;15.50;99.90
54192;DHT22;40101;53.002;6.488;2022-07-24T03:34:11;15.50;99.90
54192;DHT22;40101;53.002;6.488;2022-07-24T03:36:37;15.50;99.90
54192;DHT22;40101;53.002;6.488;2022-07-24T03:39:04;15.50;99.90
54192;DHT22;40101;53.002;6.488;2022-07-24T03:41:30;15.60;99.90
54192;DHT22;40101;53.002;6.488;2022-07-24T03:43:55;15.60;99.90
54192;DHT22;40101;53.002;6.488;2022-07-24T03:46:21;15.60;99.90
54192;DHT22;40101;53.002;6.488;2022-07-24T03:48:47;15.60;99.90
54192;DHT22;40101;53.002;6.488;2022-07-24T03:51:12;15.60;99.90
54192;DHT22;40101;53.002;6.488;2022-07-24T03:53:38;15.60;99.90
54192;DHT22;40101;53.002;6.488;2022-07-24T03:56:06;15.60;99.90
54192;DHT22;40101;53.002;6.488;2022-07-24T03:58:32;15.60;99.90
54192;DHT22;40101;53.002;6.488;2022-07-24T04:00:58;15.60;99.90
54192;DHT22;40101;53.002;6.488;2022-07-24T04:03:23;15.60;99.90
54192;DHT22;40101;53.002;6.488;2022-07-24T04:05:49;15.60;99.90
54192;DHT22;40101;53.002;6.488;2022-07-24T04:08:14;15.70;99.90
54192;DHT22;40101;53.002;6.488;2022-07-24T04:10:40;15.60;99.90
54192;DHT22;40101;53.002;6.488;2022-07-24T04:13:06;15.70;99.90
54192;DHT22;40101;53.002;6.488;2022-07-24T04:15:32;15.70;99.90
54192;DHT22;40101;53.002;6.488;2022-07-24T04:17:58;15.70;99.90
54192;DHT22;40101;53.002;6.488;2022-07-24T04:20:24;15.70;99.90
54192;DHT22;40101;53.002;6.488;2022-07-24T04:22:49;15.70;99.90
54192;DHT22;40101;53.002;6.488;2022-07-24T04:25:15;15.70;99.90
54192;DHT22;40101;53.002;6.488;2022-07-24T04:27:41;15.90;99.90
54192;DHT22;40101;53.002;6.488;2022-07-24T04:30:09;15.90;99.90
54192;DHT22;40101;53.002;6.488;2022-07-24T04:32:34;15.80;99.90
54192;DHT22;40101;53.002;6.488;2022-07-24T04:35:00;15.80;99.90
54192;DHT22;40101;53.002;6.488;2022-07-24T04:37:26;15.80;99.90
54192;DHT22;40101;53.002;6.488;2022-07-24T04:39:52;15.80;99.90
54192;DHT22;40101;53.002;6.488;2022-07-24T04:42:18;15.90;99.90
54192;DHT22;40101;53.002;6.488;2022-07-24T04:44:44;15.90;99.90
54192;DHT22;40101;53.002;6.488;2022-07-24T04:47:09;16.00;99.90
54192;DHT22;40101;53.002;6.488;2022-07-24T04:49:35;15.90;99.90
54192;DHT22;40101;53.002;6.488;2022-07-24T04:52:01;16.00;99.90
54192;DHT22;40101;53.002;6.488;2022-07-24T04:54:27;16.10;99.90
54192;DHT22;40101;53.002;6.488;2022-07-24T04:56:52;16.10;99.90
54192;DHT22;40101;53.002;6.488;2022-07-24T04:59:18;16.10;99.90
54192;DHT22;40101;53.002;6.488;2022-07-24T05:01:44;16.10;99.90
54192;DHT22;40101;53.002;6.488;2022-07-24T05:04:09;16.20;99.90
54192;DHT22;40101;53.002;6.488;2022-07-24T05:06:35;16.20;99.90
54192;DHT22;40101;53.002;6.488;2022-07-24T05:09:01;16.30;99.90
54192;DHT22;40101;53.002;6.488;2022-07-24T05:11:27;16.30;99.90
54192;DHT22;40101;53.002;6.488;2022-07-24T05:13:53;16.40;99.90
54192;DHT22;40101;53.002;6.488;2022-07-24T05:16:19;16.40;99.90
54192;DHT22;40101;53.002;6.488;2022-07-24T05:18:44;16.50;99.90
54192;DHT22;40101;53.002;6.488;2022-07-24T05:21:10;16.50;99.90
54192;DHT22;40101;53.002;6.488;2022-07-24T05:23:35;16.70;99.90
54192;DHT22;40101;53.002;6.488;2022-07-24T05:26:01;16.70;99.90
54192;DHT22;40101;53.002;6.488;2022-07-24T05:28:27;17.10;99.90
54192;DHT22;40101;53.002;6.488;2022-07-24T05:30:53;17.70;99.90
54192;DHT22;40101;53.002;6.488;2022-07-24T05:33:19;18.30;99.90
54192;DHT22;40101;53.002;6.488;2022-07-24T05:35:44;19.40;99.90
54192;DHT22;40101;53.002;6.488;2022-07-24T05:38:10;20.60;99.90
54192;DHT22;40101;53.002;6.488;2022-07-24T05:40:36;21.20;99.90
54192;DHT22;40101;53.002;6.488;2022-07-24T05:43:02;21.10;99.90
54192;DHT22;40101;53.002;6.488;2022-07-24T05:45:27;20.60;99.90
54192;DHT22;40101;53.002;6.488;2022-07-24T05:47:53;20.00;99.90
54192;DHT22;40101;53.002;6.488;2022-07-24T05:50:19;19.60;99.90
54192;DHT22;40101;53.002;6.488;2022-07-24T05:52:45;19.40;99.90
54192;DHT22;40101;53.002;6.488;2022-07-24T05:55:10;19.90;99.90
54192;DHT22;40101;53.002;6.488;2022-07-24T05:57:36;21.00;99.90
54192;DHT22;40101;53.002;6.488;2022-07-24T06:00:03;22.10;99.90
54192;DHT22;40101;53.002;6.488;2022-07-24T06:02:29;23.00;99.90
54192;DHT22;40101;53.002;6.488;2022-07-24T06:04:55;23.70;99.90
54192;DHT22;40101;53.002;6.488;2022-07-24T06:07:20;24.40;99.90
54192;DHT22;40101;53.002;6.488;2022-07-24T06:09:46;24.90;99.90
54192;DHT22;40101;53.002;6.488;2022-07-24T06:12:12;25.40;99.90
54192;DHT22;40101;53.002;6.488;2022-07-24T06:14:37;25.90;99.90
54192;DHT22;40101;53.002;6.488;2022-07-24T06:17:03;26.20;99.90
54192;DHT22;40101;53.002;6.488;2022-07-24T06:19:28;26.70;99.90
54192;DHT22;40101;53.002;6.488;2022-07-24T06:21:54;26.90;99.90
54192;DHT22;40101;53.002;6.488;2022-07-24T06:24:20;27.20;99.90
54192;DHT22;40101;53.002;6.488;2022-07-24T06:26:47;27.30;99.60
54192;DHT22;40101;53.002;6.488;2022-07-24T06:29:13;27.40;98.40
54192;DHT22;40101;53.002;6.488;2022-07-24T06:31:38;27.60;97.10
54192;DHT22;40101;53.002;6.488;2022-07-24T06:34:05;27.40;96.10
54192;DHT22;40101;53.002;6.488;2022-07-24T06:36:31;26.80;96.30
54192;DHT22;40101;53.002;6.488;2022-07-24T06:38:57;26.50;97.20
54192;DHT22;40101;53.002;6.488;2022-07-24T06:41:23;26.20;97.80
54192;DHT22;40101;53.002;6.488;2022-07-24T06:43:48;26.40;97.80
54192;DHT22;40101;53.002;6.488;2022-07-24T06:46:14;26.70;97.50
54192;DHT22;40101;53.002;6.488;2022-07-24T06:48:40;27.00;96.60
54192;DHT22;40101;53.002;6.488;2022-07-24T06:51:05;27.00;96.20
54192;DHT22;40101;53.002;6.488;2022-07-24T06:53:31;27.20;95.50
54192;DHT22;40101;53.002;6.488;2022-07-24T06:55:57;27.40;95.20
54192;DHT22;40101;53.002;6.488;2022-07-24T06:58:22;27.30;95.40
54192;DHT22;40101;53.002;6.488;2022-07-24T07:00:48;27.30;94.90
54192;DHT22;40101;53.002;6.488;2022-07-24T07:03:15;27.20;94.40
54192;DHT22;40101;53.002;6.488;2022-07-24T07:05:41;26.60;94.70
54192;DHT22;40101;53.002;6.488;2022-07-24T07:08:06;26.70;95.00
54192;DHT22;40101;53.002;6.488;2022-07-24T07:10:32;27.00;94.70
54192;DHT22;40101;53.002;6.488;2022-07-24T07:12:58;27.20;94.30
54192;DHT22;40101;53.002;6.488;2022-07-24T07:15:24;27.20;94.30
54192;DHT22;40101;53.002;6.488;2022-07-24T07:17:49;27.30;94.40
54192;DHT22;40101;53.002;6.488;2022-07-24T07:20:15;27.90;93.70
54192;DHT22;40101;53.002;6.488;2022-07-24T07:22:41;28.70;91.70
54192;DHT22;40101;53.002;6.488;2022-07-24T07:25:08;29.30;90.80
54192;DHT22;40101;53.002;6.488;2022-07-24T07:27:34;29.80;88.50
54192;DHT22;40101;53.002;6.488;2022-07-24T07:30:00;30.40;85.90
54192;DHT22;40101;53.002;6.488;2022-07-24T07:32:27;31.00;82.80
54192;DHT22;40101;53.002;6.488;2022-07-24T07:34:53;30.80;79.30
54192;DHT22;40101;53.002;6.488;2022-07-24T07:37:18;29.80;79.70
54192;DHT22;40101;53.002;6.488;2022-07-24T07:39:44;28.60;80.30
54192;DHT22;40101;53.002;6.488;2022-07-24T07:42:10;27.70;82.20
54192;DHT22;40101;53.002;6.488;2022-07-24T07:44:35;27.10;83.80
54192;DHT22;40101;53.002;6.488;2022-07-24T07:47:02;26.60;86.50
54192;DHT22;40101;53.002;6.488;2022-07-24T07:49:27;26.20;88.80
54192;DHT22;40101;53.002;6.488;2022-07-24T07:51:53;25.80;89.70
54192;DHT22;40101;53.002;6.488;2022-07-24T07:54:19;25.60;90.30
54192;DHT22;40101;53.002;6.488;2022-07-24T07:56:45;25.60;91.40
54192;DHT22;40101;53.002;6.488;2022-07-24T07:59:12;26.60;91.00
54192;DHT22;40101;53.002;6.488;2022-07-24T08:01:39;28.00;89.40
54192;DHT22;40101;53.002;6.488;2022-07-24T08:04:04;29.00;86.50
54192;DHT22;40101;53.002;6.488;2022-07-24T08:06:30;29.80;83.20
54192;DHT22;40101;53.002;6.488;2022-07-24T08:08:56;30.30;81.30
54192;DHT22;40101;53.002;6.488;2022-07-24T08:11:22;30.60;78.80
54192;DHT22;40101;53.002;6.488;2022-07-24T08:13:48;30.50;75.70
54192;DHT22;40101;53.002;6.488;2022-07-24T08:16:13;30.10;76.00
54192;DHT22;40101;53.002;6.488;2022-07-24T08:18:39;30.00;77.40
54192;DHT22;40101;53.002;6.488;2022-07-24T08:21:05;30.50;77.60
54192;DHT22;40101;53.002;6.488;2022-07-24T08:23:31;30.80;75.60
54192;DHT22;40101;53.002;6.488;2022-07-24T08:25:57;30.50;73.70
54192;DHT22;40101;53.002;6.488;2022-07-24T08:28:23;29.90;73.90
54192;DHT22;40101;53.002;6.488;2022-07-24T08:30:50;29.60;74.90
54192;DHT22;40101;53.002;6.488;2022-07-24T08:33:16;29.10;75.10
54192;DHT22;40101;53.002;6.488;2022-07-24T08:35:41;28.70;75.50
54192;DHT22;40101;53.002;6.488;2022-07-24T08:38:07;28.40;77.20
54192;DHT22;40101;53.002;6.488;2022-07-24T08:40:35;28.70;77.90
54192;DHT22;40101;53.002;6.488;2022-07-24T08:43:02;29.30;78.40
54192;DHT22;40101;53.002;6.488;2022-07-24T08:45:28;29.20;78.20
54192;DHT22;40101;53.002;6.488;2022-07-24T08:47:55;29.00;77.80
54192;DHT22;40101;53.002;6.488;2022-07-24T08:50:22;29.10;78.20
54192;DHT22;40101;53.002;6.488;2022-07-24T08:52:48;29.10;78.80
54192;DHT22;40101;53.002;6.488;2022-07-24T08:55:14;29.20;78.40
54192;DHT22;40101;53.002;6.488;2022-07-24T08:57:40;29.40;77.00
54192;DHT22;40101;53.002;6.488;2022-07-24T09:00:06;29.70;76.00
54192;DHT22;40101;53.002;6.488;2022-07-24T09:02:32;29.70;75.30
54192;DHT22;40101;53.002;6.488;2022-07-24T09:05:00;29.60;74.30
54192;DHT22;40101;53.002;6.488;2022-07-24T09:07:29;29.30;74.90
54192;DHT22;40101;53.002;6.488;2022-07-24T09:10:05;29.20;74.80
54192;DHT22;40101;53.002;6.488;2022-07-24T09:12:33;29.30;75.10
54192;DHT22;40101;53.002;6.488;2022-07-24T09:15:00;29.60;75.50
54192;DHT22;40101;53.002;6.488;2022-07-24T09:17:26;29.60;76.00
54192;DHT22;40101;53.002;6.488;2022-07-24T09:19:59;29.60;75.00
54192;DHT22;40101;53.002;6.488;2022-07-24T09:22:37;29.30;75.10
54192;DHT22;40101;53.002;6.488;2022-07-24T09:27:30;28.70;77.20
54192;DHT22;40101;53.002;6.488;2022-07-24T09:29:56;28.60;78.10
54192;DHT22;40101;53.002;6.488;2022-07-24T09:32:23;28.40;77.60
54192;DHT22;40101;53.002;6.488;2022-07-24T09:34:51;28.60;78.50
54192;DHT22;40101;53.002;6.488;2022-07-24T09:37:18;29.10;78.40
54192;DHT22;40101;53.002;6.488;2022-07-24T09:39:45;29.80;77.80
54192;DHT22;40101;53.002;6.488;2022-07-24T09:42:11;30.00;75.40
54192;DHT22;40101;53.002;6.488;2022-07-24T09:44:39;30.10;74.10
54192;DHT22;40101;53.002;6.488;2022-07-24T09:47:09;30.30;75.00
54192;DHT22;40101;53.002;6.488;2022-07-24T09:49:37;30.40;74.30
54192;DHT22;40101;53.002;6.488;2022-07-24T09:52:22;30.40;73.90
54192;DHT22;40101;53.002;6.488;2022-07-24T09:54:57;30.50;73.80
54192;DHT22;40101;53.002;6.488;2022-07-24T09:57:28;30.50;73.30
54192;DHT22;40101;53.002;6.488;2022-07-24T09:59:58;30.60;73.40
54192;DHT22;40101;53.002;6.488;2022-07-24T10:02:26;30.80;72.00
54192;DHT22;40101;53.002;6.488;2022-07-24T10:04:53;30.70;70.70
54192;DHT22;40101;53.002;6.488;2022-07-24T10:07:21;30.60;70.90
54192;DHT22;40101;53.002;6.488;2022-07-24T10:09:49;30.60;71.20
54192;DHT22;40101;53.002;6.488;2022-07-24T10:12:20;30.80;71.50
54192;DHT22;40101;53.002;6.488;2022-07-24T10:14:48;31.00;70.70
54192;DHT22;40101;53.002;6.488;2022-07-24T10:17:17;30.80;69.60
54192;DHT22;40101;53.002;6.488;2022-07-24T10:19:50;30.90;71.50
54192;DHT22;40101;53.002;6.488;2022-07-24T10:22:19;31.00;70.70
54192;DHT22;40101;53.002;6.488;2022-07-24T10:29:56;30.10;71.30
54192;DHT22;40101;53.002;6.488;2022-07-24T10:32:24;29.60;71.50
54192;DHT22;40101;53.002;6.488;2022-07-24T10:37:54;29.10;73.40
54192;DHT22;40101;53.002;6.488;2022-07-24T10:40:43;29.00;73.50
54192;DHT22;40101;53.002;6.488;2022-07-24T10:43:14;28.80;72.50
54192;DHT22;40101;53.002;6.488;2022-07-24T10:48:38;28.50;73.70
54192;DHT22;40101;53.002;6.488;2022-07-24T10:51:13;28.60;75.80
54192;DHT22;40101;53.002;6.488;2022-07-24T10:56:27;28.70;76.40
54192;DHT22;40101;53.002;6.488;2022-07-24T11:01:45;29.20;74.20
54192;DHT22;40101;53.002;6.488;2022-07-24T11:06:50;29.30;74.60
54192;DHT22;40101;53.002;6.488;2022-07-24T11:09:18;29.40;73.00
54192;DHT22;40101;53.002;6.488;2022-07-24T11:14:24;29.40;73.80
54192;DHT22;40101;53.002;6.488;2022-07-24T11:16:50;29.30;72.90
54192;DHT22;40101;53.002;6.488;2022-07-24T11:21:46;29.00;73.20
54192;DHT22;40101;53.002;6.488;2022-07-24T11:24:16;28.90;73.00
54192;DHT22;40101;53.002;6.488;2022-07-24T11:27:05;28.90;74.00
54192;DHT22;40101;53.002;6.488;2022-07-24T11:29:35;28.90;72.00
54192;DHT22;40101;53.002;6.488;2022-07-24T11:32:10;28.80;73.90
54192;DHT22;40101;53.002;6.488;2022-07-24T11:34:46;29.00;75.60
54192;DHT22;40101;53.002;6.488;2022-07-24T11:37:12;29.20;74.70
54192;DHT22;40101;53.002;6.488;2022-07-24T11:39:40;29.10;74.30
54192;DHT22;40101;53.002;6.488;2022-07-24T11:42:16;29.10;72.30
54192;DHT22;40101;53.002;6.488;2022-07-24T11:44:44;29.10;71.70
54192;DHT22;40101;53.002;6.488;2022-07-24T11:47:15;29.10;70.90
54192;DHT22;40101;53.002;6.488;2022-07-24T11:49:50;29.10;72.70
54192;DHT22;40101;53.002;6.488;2022-07-24T11:52:27;29.10;71.10
54192;DHT22;40101;53.002;6.488;2022-07-24T11:54:55;28.90;71.70
54192;DHT22;40101;53.002;6.488;2022-07-24T11:57:23;28.70;71.70
54192;DHT22;40101;53.002;6.488;2022-07-24T11:59:50;28.60;72.40
54192;DHT22;40101;53.002;6.488;2022-07-24T12:02:17;28.60;73.30
54192;DHT22;40101;53.002;6.488;2022-07-24T12:04:45;28.80;73.30
54192;DHT22;40101;53.002;6.488;2022-07-24T12:07:29;29.00;74.70
54192;DHT22;40101;53.002;6.488;2022-07-24T12:09:57;29.10;75.50
54192;DHT22;40101;53.002;6.488;2022-07-24T12:14:52;29.30;72.40
54192;DHT22;40101;53.002;6.488;2022-07-24T12:17:18;29.20;72.90
54192;DHT22;40101;53.002;6.488;2022-07-24T12:19:52;29.30;72.10
54192;DHT22;40101;53.002;6.488;2022-07-24T12:22:20;29.30;73.00
54192;DHT22;40101;53.002;6.488;2022-07-24T12:24:47;29.30;71.70
54192;DHT22;40101;53.002;6.488;2022-07-24T12:27:31;29.30;71.60
54192;DHT22;40101;53.002;6.488;2022-07-24T12:29:59;29.30;69.70
54192;DHT22;40101;53.002;6.488;2022-07-24T12:32:25;29.30;70.70
54192;DHT22;40101;53.002;6.488;2022-07-24T12:34:53;29.20;71.70
54192;DHT22;40101;53.002;6.488;2022-07-24T12:37:20;29.30;71.40
54192;DHT22;40101;53.002;6.488;2022-07-24T12:39:47;29.20;70.80
54192;DHT22;40101;53.002;6.488;2022-07-24T12:42:13;29.10;71.00
54192;DHT22;40101;53.002;6.488;2022-07-24T12:44:41;28.90;71.30
54192;DHT22;40101;53.002;6.488;2022-07-24T12:47:10;28.70;72.60
54192;DHT22;40101;53.002;6.488;2022-07-24T12:49:44;28.60;72.40
54192;DHT22;40101;53.002;6.488;2022-07-24T12:52:25;28.70;71.70
54192;DHT22;40101;53.002;6.488;2022-07-24T12:54:53;28.80;71.10
54192;DHT22;40101;53.002;6.488;2022-07-24T12:57:22;28.80;72.10
54192;DHT22;40101;53.002;6.488;2022-07-24T12:59:50;28.80;71.90
54192;DHT22;40101;53.002;6.488;2022-07-24T13:02:16;28.80;71.70
54192;DHT22;40101;53.002;6.488;2022-07-24T13:04:47;28.90;71.40
54192;DHT22;40101;53.002;6.488;2022-07-24T13:07:15;28.90;71.60
54192;DHT22;40101;53.002;6.488;2022-07-24T13:09:41;29.10;72.10
54192;DHT22;40101;53.002;6.488;2022-07-24T13:12:08;29.00;71.20
54192;DHT22;40101;53.002;6.488;2022-07-24T13:14:34;29.00;71.20
54192;DHT22;40101;53.002;6.488;2022-07-24T13:17:19;28.90;71.30
54192;DHT22;40101;53.002;6.488;2022-07-24T13:19:50;29.10;73.20
54192;DHT22;40101;53.002;6.488;2022-07-24T13:22:16;29.10;71.90
54192;DHT22;40101;53.002;6.488;2022-07-24T13:24:42;29.10;71.40
54192;DHT22;40101;53.002;6.488;2022-07-24T13:27:12;29.10;71.10
54192;DHT22;40101;53.002;6.488;2022-07-24T13:29:39;29.00;69.90
54192;DHT22;40101;53.002;6.488;2022-07-24T13:32:05;29.00;69.60
54192;DHT22;40101;53.002;6.488;2022-07-24T13:34:32;29.00;70.20
54192;DHT22;40101;53.002;6.488;2022-07-24T13:36:58;28.90;70.20
54192;DHT22;40101;53.002;6.488;2022-07-24T13:39:24;28.90;70.90
54192;DHT22;40101;53.002;6.488;2022-07-24T13:41:50;29.00;70.70
54192;DHT22;40101;53.002;6.488;2022-07-24T13:44:16;29.00;71.70
54192;DHT22;40101;53.002;6.488;2022-07-24T13:46:43;28.90;71.10
54192;DHT22;40101;53.002;6.488;2022-07-24T13:49:09;29.00;71.20
54192;DHT22;40101;53.002;6.488;2022-07-24T13:51:35;29.00;70.80
54192;DHT22;40101;53.002;6.488;2022-07-24T13:54:01;29.10;71.50
54192;DHT22;40101;53.002;6.488;2022-07-24T13:56:27;28.90;70.80
54192;DHT22;40101;53.002;6.488;2022-07-24T13:58:53;28.90;70.90
54192;DHT22;40101;53.002;6.488;2022-07-24T14:01:20;28.90;71.10
54192;DHT22;40101;53.002;6.488;2022-07-24T14:03:46;28.90;70.80
54192;DHT22;40101;53.002;6.488;2022-07-24T14:06:12;28.90;71.10
54192;DHT22;40101;53.002;6.488;2022-07-24T14:08:39;29.00;71.00
54192;DHT22;40101;53.002;6.488;2022-07-24T14:11:06;29.00;71.20
54192;DHT22;40101;53.002;6.488;2022-07-24T14:13:33;29.00;70.20
54192;DHT22;40101;53.002;6.488;2022-07-24T14:15:58;29.00;71.10
54192;DHT22;40101;53.002;6.488;2022-07-24T14:18:24;29.00;70.70
54192;DHT22;40101;53.002;6.488;2022-07-24T14:20:50;29.00;71.00
54192;DHT22;40101;53.002;6.488;2022-07-24T14:23:17;29.00;71.40
54192;DHT22;40101;53.002;6.488;2022-07-24T14:25:46;29.00;71.40
54192;DHT22;40101;53.002;6.488;2022-07-24T14:28:13;29.00;71.10
54192;DHT22;40101;53.002;6.488;2022-07-24T14:30:39;29.10;71.50
54192;DHT22;40101;53.002;6.488;2022-07-24T14:33:05;29.10;70.40
54192;DHT22;40101;53.002;6.488;2022-07-24T14:35:31;29.20;69.60
54192;DHT22;40101;53.002;6.488;2022-07-24T14:37:58;29.00;69.80
54192;DHT22;40101;53.002;6.488;2022-07-24T14:40:24;29.00;70.20
54192;DHT22;40101;53.002;6.488;2022-07-24T14:42:51;28.90;71.20
54192;DHT22;40101;53.002;6.488;2022-07-24T14:45:17;28.90;70.80
54192;DHT22;40101;53.002;6.488;2022-07-24T14:47:43;29.00;70.60
54192;DHT22;40101;53.002;6.488;2022-07-24T14:52:35;28.90;72.10
54192;DHT22;40101;53.002;6.488;2022-07-24T14:55:02;29.00;72.30
54192;DHT22;40101;53.002;6.488;2022-07-24T14:57:28;29.00;71.50
54192;DHT22;40101;53.002;6.488;2022-07-24T14:59:53;29.00;71.20
54192;DHT22;40101;53.002;6.488;2022-07-24T15:02:19;29.00;71.20
54192;DHT22;40101;53.002;6.488;2022-07-24T15:04:45;29.00;71.40
54192;DHT22;40101;53.002;6.488;2022-07-24T15:07:10;28.90;71.50
54192;DHT22;40101;53.002;6.488;2022-07-24T15:09:36;28.90;71.20
54192;DHT22;40101;53.002;6.488;2022-07-24T15:12:02;28.90;71.10
54192;DHT22;40101;53.002;6.488;2022-07-24T15:14:28;28.90;71.20
54192;DHT22;40101;53.002;6.488;2022-07-24T15:16:53;28.80;71.40
54192;DHT22;40101;53.002;6.488;2022-07-24T15:19:19;28.80;71.90
54192;DHT22;40101;53.002;6.488;2022-07-24T15:21:45;28.70;71.80
54192;DHT22;40101;53.002;6.488;2022-07-24T15:24:10;28.70;71.50
54192;DHT22;40101;53.002;6.488;2022-07-24T15:26:37;28.70;72.00
54192;DHT22;40101;53.002;6.488;2022-07-24T15:29:03;28.70;72.00
54192;DHT22;40101;53.002;6.488;2022-07-24T15:31:29;28.70;72.30
54192;DHT22;40101;53.002;6.488;2022-07-24T15:33:55;28.70;72.30
54192;DHT22;40101;53.002;6.488;2022-07-24T15:36:20;28.70;71.60
54192;DHT22;40101;53.002;6.488;2022-07-24T15:38:46;28.70;71.50
54192;DHT22;40101;53.002;6.488;2022-07-24T15:41:12;28.70;72.30
54192;DHT22;40101;53.002;6.488;2022-07-24T15:43:37;28.70;72.70
54192;DHT22;40101;53.002;6.488;2022-07-24T15:46:03;28.70;72.10
54192;DHT22;40101;53.002;6.488;2022-07-24T15:48:28;28.60;72.20
54192;DHT22;40101;53.002;6.488;2022-07-24T15:50:54;28.60;73.60
54192;DHT22;40101;53.002;6.488;2022-07-24T15:53:20;28.60;73.00
54192;DHT22;40101;53.002;6.488;2022-07-24T15:55:45;28.60;72.60
54192;DHT22;40101;53.002;6.488;2022-07-24T15:58:11;28.50;72.50
54192;DHT22;40101;53.002;6.488;2022-07-24T16:00:37;28.40;73.30